createdAt,value
2022-10-24T00:00:50.670Z,100434.94
2022-10-24T00:03:17.075Z,100436.75
2022-10-24T00:05:44.418Z,100444.81
2022-10-24T00:08:10.961Z,100437.69
2022-10-24T00:10:37.365Z,100431.56
2022-10-24T00:13:03.995Z,100428.88
2022-10-24T00:15:30.534Z,100418.22
2022-10-24T00:17:56.888Z,100429.03
2022-10-24T00:20:23.278Z,100429.03
2022-10-24T00:22:49.652Z,100433.63
2022-10-24T00:25:16.044Z,100430.94
2022-10-24T00:27:42.412Z,100437.31
2022-10-24T00:30:09.268Z,100440.00
2022-10-24T00:32:35.904Z,100432.91
2022-10-24T00:35:02.282Z,100439.22
2022-10-24T00:37:28.709Z,100429.47
2022-10-24T00:39:55.099Z,100436.63
2022-10-24T00:42:21.531Z,100425.91
2022-10-24T00:44:49.359Z,100421.56
2022-10-24T00:47:25.728Z,100426.06
2022-10-24T00:50:13.346Z,100423.44
2022-10-24T00:52:45.381Z,100419.03
2022-10-24T00:55:11.992Z,100415.47
2022-10-24T00:57:43.665Z,100413.91
2022-10-24T01:00:15.858Z,100406.81
2022-10-24T01:02:42.713Z,100406.97
2022-10-24T01:05:09.521Z,100406.16
2022-10-24T01:08:37.791Z,100409.00
2022-10-24T01:11:17.642Z,100402.06
2022-10-24T01:14:02.133Z,100410.13
2022-10-24T01:16:56.284Z,100405.72
2022-10-24T01:19:49.363Z,100415.63
2022-10-24T01:22:24.597Z,100399.69
2022-10-24T01:24:58.303Z,100409.56
2022-10-24T01:27:56.014Z,100409.63
2022-10-24T01:30:22.400Z,100404.25
2022-10-24T01:33:12.010Z,100407.91
2022-10-24T01:35:58.347Z,100397.94
2022-10-24T01:38:46.564Z,100385.81
2022-10-24T01:41:14.343Z,100396.78
2022-10-24T01:44:08.365Z,100403.00
2022-10-24T01:46:42.980Z,100387.16
2022-10-24T01:49:14.558Z,100393.53
2022-10-24T01:51:41.022Z,100398.97
2022-10-24T01:54:07.516Z,100392.06
2022-10-24T01:56:33.888Z,100387.84
2022-10-24T01:59:07.376Z,100382.56
2022-10-24T02:01:33.828Z,100379.09
2022-10-24T02:04:02.224Z,100379.00
2022-10-24T02:06:31.110Z,100379.75
2022-10-24T02:08:59.392Z,100383.44
2022-10-24T02:11:25.804Z,100379.00
2022-10-24T02:14:02.166Z,100376.34
2022-10-24T02:16:28.551Z,100369.25
2022-10-24T02:18:55.159Z,100366.56
2022-10-24T02:21:42.410Z,100377.28
2022-10-24T02:24:18.826Z,100374.59
2022-10-24T02:27:06.853Z,100366.66
2022-10-24T02:29:36.752Z,100357.81
2022-10-24T02:32:05.194Z,100353.41
2022-10-24T02:34:32.145Z,100339.00
2022-10-24T02:36:58.553Z,100334.38
2022-10-24T02:39:25.080Z,100337.88
2022-10-24T02:41:51.551Z,100325.25
2022-10-24T02:44:18.140Z,100320.84
2022-10-24T02:46:44.577Z,100332.44
2022-10-24T02:49:10.965Z,100326.28
2022-10-24T02:51:39.036Z,100328.16
2022-10-24T02:54:05.520Z,100330.94
2022-10-24T02:56:31.968Z,100333.50
2022-10-24T02:58:58.434Z,100329.91
2022-10-24T03:01:25.033Z,100328.88
2022-10-24T03:03:51.437Z,100315.31
2022-10-24T03:06:18.002Z,100307.34
2022-10-24T03:08:44.416Z,100318.00
2022-10-24T03:11:10.825Z,100324.31
2022-10-24T03:13:37.206Z,100318.09
2022-10-24T03:16:03.806Z,100316.28
2022-10-24T03:18:30.570Z,100306.41
2022-10-24T03:20:56.995Z,100298.53
2022-10-24T03:23:23.390Z,100305.69
2022-10-24T03:25:49.758Z,100304.91
2022-10-24T03:28:16.161Z,100302.22
2022-10-24T03:30:42.568Z,100296.16
2022-10-24T03:33:08.988Z,100297.03
2022-10-24T03:35:35.403Z,100306.03
2022-10-24T03:38:01.816Z,100306.13
2022-10-24T03:40:28.244Z,100305.22
2022-10-24T03:42:54.635Z,100304.47
2022-10-24T03:45:21.023Z,100296.50
2022-10-24T03:47:47.419Z,100305.53
2022-10-24T03:50:13.824Z,100306.47
2022-10-24T03:52:40.216Z,100303.00
2022-10-24T03:55:06.869Z,100301.25
2022-10-24T03:57:33.271Z,100299.53
2022-10-24T03:59:59.649Z,100300.47
2022-10-24T04:02:26.088Z,100292.34
2022-10-24T04:04:52.464Z,100297.78
2022-10-24T04:07:18.850Z,100293.44
2022-10-24T04:09:45.240Z,100283.84
2022-10-24T04:12:11.669Z,100278.56
2022-10-24T04:14:38.037Z,100279.44
2022-10-24T04:17:04.462Z,100274.06
2022-10-24T04:19:30.855Z,100268.84
2022-10-24T04:21:57.327Z,100260.88
2022-10-24T04:24:23.720Z,100250.44
2022-10-24T04:26:50.173Z,100260.66
2022-10-24T04:29:16.564Z,100275.53
2022-10-24T04:31:42.945Z,100273.91
2022-10-24T04:34:09.330Z,100288.06
2022-10-24T04:36:35.689Z,100280.13
2022-10-24T04:39:02.312Z,100282.78
2022-10-24T04:41:28.722Z,100276.41
2022-10-24T04:43:55.148Z,100280.91
2022-10-24T04:46:21.518Z,100285.41
2022-10-24T04:48:47.911Z,100277.28
2022-10-24T04:51:17.399Z,100278.06
2022-10-24T04:53:46.532Z,100282.41
2022-10-24T04:56:12.936Z,100280.53
2022-10-24T04:58:39.482Z,100278.63
2022-10-24T05:01:08.029Z,100277.75
2022-10-24T05:03:35.011Z,100272.25
2022-10-24T05:06:01.420Z,100283.81
2022-10-24T05:08:27.805Z,100278.53
2022-10-24T05:10:54.214Z,100284.69
2022-10-24T05:13:20.631Z,100279.28
2022-10-24T05:15:48.081Z,100280.97
2022-10-24T05:18:14.535Z,100274.53
2022-10-24T05:23:07.472Z,100281.56
2022-10-24T05:25:33.859Z,100277.00
2022-10-24T05:28:00.301Z,100263.75
2022-10-24T05:30:26.875Z,100269.09
2022-10-24T05:32:53.293Z,100271.78
2022-10-24T05:35:19.691Z,100272.66
2022-10-24T05:37:46.070Z,100279.84
2022-10-24T05:40:12.540Z,100282.22
2022-10-24T05:42:38.959Z,100276.50
2022-10-24T05:45:10.523Z,100277.31
2022-10-24T05:47:37.001Z,100276.38
2022-10-24T05:50:04.182Z,100275.50
2022-10-24T05:52:30.618Z,100284.00
2022-10-24T05:55:07.000Z,100278.56
2022-10-24T05:57:34.614Z,100281.38
2022-10-24T06:00:01.050Z,100282.25
2022-10-24T06:02:27.697Z,100282.31
2022-10-24T06:04:54.277Z,100287.38
2022-10-24T06:07:22.039Z,100282.75
2022-10-24T06:09:48.481Z,100281.88
2022-10-24T06:12:16.124Z,100280.75
2022-10-24T06:14:42.544Z,100272.84
2022-10-24T06:17:08.903Z,100277.25
2022-10-24T06:19:36.506Z,100272.84
2022-10-24T06:22:03.545Z,100279.00
2022-10-24T06:24:30.094Z,100273.72
2022-10-24T06:26:56.467Z,100273.03
2022-10-24T06:29:22.857Z,100270.50
2022-10-24T06:31:49.259Z,100275.06
2022-10-24T06:34:15.649Z,100273.34
2022-10-24T06:36:42.077Z,100275.25
2022-10-24T06:39:08.461Z,100269.91
2022-10-24T06:41:34.856Z,100270.66
2022-10-24T06:44:02.735Z,100277.69
2022-10-24T06:46:29.295Z,100274.28
2022-10-24T06:48:55.874Z,100284.31
2022-10-24T06:51:22.968Z,100286.06
2022-10-24T06:53:49.429Z,100286.94
2022-10-24T06:56:15.826Z,100284.84
2022-10-24T06:58:42.187Z,100290.16
2022-10-24T07:01:13.054Z,100297.16
2022-10-24T07:03:39.555Z,100290.06
2022-10-24T07:06:10.585Z,100293.53
2022-10-24T07:08:37.008Z,100301.59
2022-10-24T07:11:03.418Z,100303.22
2022-10-24T07:13:29.782Z,100312.78
2022-10-24T07:15:56.189Z,100307.84
2022-10-24T07:18:22.563Z,100316.78
2022-10-24T07:20:48.952Z,100310.38
2022-10-24T07:23:15.325Z,100320.31
2022-10-24T07:25:41.828Z,100314.53
2022-10-24T07:28:08.426Z,100318.88
2022-10-24T07:30:34.925Z,100325.19
2022-10-24T07:33:01.392Z,100318.00
2022-10-24T07:35:27.775Z,100318.88
2022-10-24T07:37:54.302Z,100324.25
2022-10-24T07:40:21.388Z,100324.09
2022-10-24T07:42:47.793Z,100322.88
2022-10-24T07:45:14.221Z,100320.97
2022-10-24T07:47:40.646Z,100333.97
2022-10-24T07:50:07.592Z,100339.91
2022-10-24T07:52:33.984Z,100338.38
2022-10-24T07:55:00.468Z,100348.06
2022-10-24T07:57:26.973Z,100337.78
2022-10-24T07:59:53.496Z,100341.84
2022-10-24T08:02:20.017Z,100340.97
2022-10-24T08:04:47.424Z,100341.75
2022-10-24T08:07:14.007Z,100337.72
2022-10-24T08:09:44.932Z,100333.47
2022-10-24T08:12:11.393Z,100337.38
2022-10-24T08:14:38.699Z,100335.97
2022-10-24T08:17:05.203Z,100333.81
2022-10-24T08:19:32.072Z,100333.28
2022-10-24T08:21:58.672Z,100327.34
2022-10-24T08:24:26.176Z,100335.25
2022-10-24T08:26:52.592Z,100331.41
2022-10-24T08:29:18.975Z,100327.97
2022-10-24T08:31:45.406Z,100327.78
2022-10-24T08:34:13.883Z,100330.47
2022-10-24T08:36:40.281Z,100328.78
2022-10-24T08:39:06.671Z,100329.09
2022-10-24T08:41:36.756Z,100311.13
2022-10-24T08:44:16.410Z,100320.94
2022-10-24T08:46:59.373Z,100316.16
2022-10-24T08:49:31.064Z,100312.53
2022-10-24T08:52:01.269Z,100322.13
2022-10-24T08:54:31.203Z,100316.56
2022-10-24T08:56:57.653Z,100313.78
2022-10-24T08:59:24.639Z,100309.44
2022-10-24T09:01:52.777Z,100312.31
2022-10-24T09:04:26.201Z,100311.34
2022-10-24T09:06:53.224Z,100316.75
2022-10-24T09:09:25.564Z,100321.16
2022-10-24T09:12:00.863Z,100323.69
2022-10-24T09:14:35.757Z,100314.25
2022-10-24T09:17:30.480Z,100309.31
2022-10-24T09:20:00.197Z,100313.38
2022-10-24T09:22:28.426Z,100317.59
2022-10-24T09:25:02.656Z,100308.09
2022-10-24T09:27:30.842Z,100315.50
2022-10-24T09:29:57.842Z,100313.28
2022-10-24T09:32:25.649Z,100322.22
2022-10-24T09:34:52.129Z,100315.97
2022-10-24T09:37:43.955Z,100321.16
2022-10-24T09:40:19.415Z,100320.94
2022-10-24T09:43:01.035Z,100311.25
2022-10-24T09:45:49.231Z,100317.31
2022-10-24T09:48:30.108Z,100308.34
2022-10-24T09:50:56.895Z,100308.34
2022-10-24T09:53:26.346Z,100316.25
2022-10-24T09:55:55.077Z,100309.22
2022-10-24T09:58:22.929Z,100312.78
2022-10-24T10:01:06.542Z,100315.94
2022-10-24T10:03:34.168Z,100315.63
2022-10-24T10:06:14.765Z,100311.66
2022-10-24T10:08:41.258Z,100305.22
2022-10-24T10:11:09.021Z,100303.75
2022-10-24T10:13:48.617Z,100319.44
2022-10-24T10:16:36.240Z,100316.47
2022-10-24T10:19:07.041Z,100310.53
2022-10-24T10:21:55.895Z,100315.66
2022-10-24T10:24:50.010Z,100315.13
2022-10-24T10:27:40.133Z,100304.91
2022-10-24T10:30:16.822Z,100316.22
2022-10-24T10:33:23.513Z,100300.28
2022-10-24T10:36:31.132Z,100294.59
2022-10-24T10:39:20.770Z,100299.03
2022-10-24T10:42:21.978Z,100305.81
2022-10-24T10:45:00.345Z,100306.16
2022-10-24T10:47:32.523Z,100299.59
2022-10-24T10:49:59.041Z,100303.72
2022-10-24T10:52:32.923Z,100307.38
2022-10-24T10:55:36.167Z,100306.50
2022-10-24T10:58:24.414Z,100302.94
2022-10-24T11:01:06.534Z,100308.88
2022-10-24T11:03:34.952Z,100300.00
2022-10-24T11:06:25.482Z,100311.69
2022-10-24T11:09:03.914Z,100319.03
2022-10-24T11:11:31.956Z,100312.44
2022-10-24T11:14:16.081Z,100315.91
2022-10-24T11:16:42.677Z,100318.19
2022-10-24T11:19:29.153Z,100314.84
2022-10-24T11:21:56.828Z,100315.63
2022-10-24T11:24:23.268Z,100314.53
2022-10-24T11:26:57.423Z,100312.63
2022-10-24T11:29:42.161Z,100305.03
2022-10-24T11:32:33.741Z,100307.13
2022-10-24T11:35:07.921Z,100319.28
2022-10-24T11:37:36.556Z,100322.44
2022-10-24T11:40:30.518Z,100314.97
2022-10-24T11:43:27.870Z,100310.41
2022-10-24T11:46:22.243Z,100314.38
2022-10-24T11:51:29.131Z,100307.69
2022-10-24T11:53:57.548Z,100315.69
2022-10-24T11:56:38.411Z,100308.34
2022-10-24T11:59:06.373Z,100304.31
2022-10-24T12:01:51.253Z,100314.91
2022-10-24T12:04:56.081Z,100324.53
2022-10-24T12:07:44.651Z,100313.75
2022-10-24T12:10:48.855Z,100316.22
2022-10-24T12:13:20.462Z,100318.59
2022-10-24T12:16:17.897Z,100322.94
2022-10-24T12:18:45.729Z,100316.84
2022-10-24T12:21:14.597Z,100317.91
2022-10-24T12:23:41.159Z,100317.38
2022-10-24T12:26:16.273Z,100317.47
2022-10-24T12:28:42.645Z,100321.38
2022-10-24T12:31:10.036Z,100316.19
2022-10-24T12:33:36.419Z,100321.91
2022-10-24T12:36:02.878Z,100318.78
2022-10-24T12:38:29.130Z,100318.41
2022-10-24T12:41:05.834Z,100312.03
2022-10-24T12:43:39.285Z,100316.00
2022-10-24T12:46:15.878Z,100320.63
2022-10-24T12:48:57.195Z,100308.44
2022-10-24T12:51:36.647Z,100307.47
2022-10-24T12:54:13.129Z,100318.38
2022-10-24T12:56:51.617Z,100323.97
2022-10-24T12:59:21.917Z,100317.81
2022-10-24T13:01:49.231Z,100312.78
2022-10-24T13:04:40.047Z,100306.09
2022-10-24T13:07:19.225Z,100317.47
2022-10-24T13:10:20.295Z,100306.97
2022-10-24T13:12:57.014Z,100317.47
2022-10-24T13:16:00.927Z,100305.69
2022-10-24T13:19:08.622Z,100309.47
2022-10-24T13:21:51.822Z,100314.44
2022-10-24T13:24:18.046Z,100317.91
2022-10-24T13:26:48.735Z,100315.81
2022-10-24T13:29:20.968Z,100325.53
2022-10-24T13:31:49.303Z,100317.06
2022-10-24T13:34:23.994Z,100331.09
2022-10-24T13:37:20.534Z,100317.09
2022-10-24T13:40:01.196Z,100320.84
2022-10-24T13:42:58.008Z,100327.97
2022-10-24T13:45:33.706Z,100326.81
2022-10-24T13:48:08.103Z,100322.44
2022-10-24T13:50:36.182Z,100334.81
2022-10-24T13:53:11.888Z,100340.22
2022-10-24T13:55:39.163Z,100330.88
2022-10-24T13:58:05.553Z,100330.91
2022-10-24T14:00:33.458Z,100329.06
2022-10-24T14:02:59.979Z,100341.69
2022-10-24T14:05:33.663Z,100332.91
2022-10-24T14:08:00.073Z,100335.06
2022-10-24T14:10:26.515Z,100341.13
2022-10-24T14:12:53.337Z,100344.78
2022-10-24T14:15:21.341Z,100346.00
2022-10-24T14:18:06.107Z,100347.81
2022-10-24T14:20:34.261Z,100339.66
2022-10-24T14:23:02.743Z,100362.75
2022-10-24T14:25:36.767Z,100352.50
2022-10-24T14:28:15.527Z,100361.13
2022-10-24T14:30:51.639Z,100360.75
2022-10-24T14:33:23.660Z,100363.69
2022-10-24T14:35:52.419Z,100351.94
2022-10-24T14:38:21.753Z,100355.72
2022-10-24T14:41:01.336Z,100362.28
2022-10-24T14:43:34.843Z,100353.06
2022-10-24T14:46:13.404Z,100356.16
2022-10-24T14:48:42.012Z,100360.84
2022-10-24T14:51:33.861Z,100357.72
2022-10-24T14:54:07.459Z,100359.09
2022-10-24T14:56:34.856Z,100349.66
2022-10-24T14:59:04.645Z,100364.16
2022-10-24T15:01:32.131Z,100359.28
2022-10-24T15:03:59.392Z,100353.44
2022-10-24T15:06:27.430Z,100360.19
2022-10-24T15:09:04.615Z,100361.59
2022-10-24T15:11:37.087Z,100367.34
2022-10-24T15:14:07.249Z,100371.63
2022-10-24T15:16:35.783Z,100375.75
2022-10-24T15:19:02.181Z,100373.66
2022-10-24T15:21:35.175Z,100368.53
2022-10-24T15:24:02.151Z,100368.75
2022-10-24T15:26:31.352Z,100377.50
2022-10-24T15:29:03.683Z,100377.91
2022-10-24T15:31:30.511Z,100374.84
2022-10-24T15:33:56.932Z,100374.94
2022-10-24T15:36:25.390Z,100370.78
2022-10-24T15:38:59.199Z,100379.72
2022-10-24T15:41:26.084Z,100382.03
2022-10-24T15:43:52.851Z,100378.28
2022-10-24T15:46:19.241Z,100381.47
2022-10-24T15:48:45.739Z,100391.94
2022-10-24T15:51:18.279Z,100375.09
2022-10-24T15:53:45.071Z,100385.00
2022-10-24T15:56:11.639Z,100391.16
2022-10-24T15:58:41.148Z,100390.56
2022-10-24T16:01:08.285Z,100400.75
2022-10-24T16:03:34.905Z,100398.22
2022-10-24T16:06:01.386Z,100399.03
2022-10-24T16:08:27.795Z,100414.22
2022-10-24T16:10:54.197Z,100409.88
2022-10-24T16:13:21.074Z,100411.78
2022-10-24T16:15:48.623Z,100412.84
2022-10-24T16:18:15.098Z,100412.16
2022-10-24T16:20:41.646Z,100402.34
2022-10-24T16:23:08.186Z,100408.53
2022-10-24T16:25:36.597Z,100406.59
2022-10-24T16:28:04.271Z,100408.34
2022-10-24T16:30:34.496Z,100407.56
2022-10-24T16:33:00.972Z,100413.50
2022-10-24T16:35:29.277Z,100424.50
2022-10-24T16:37:56.310Z,100425.69
2022-10-24T16:40:22.852Z,100425.69
2022-10-24T16:42:50.032Z,100432.69
2022-10-24T16:45:16.619Z,100436.69
2022-10-24T16:47:43.011Z,100433.41
2022-10-24T16:50:13.568Z,100433.66
2022-10-24T16:52:39.990Z,100438.34
2022-10-24T16:55:06.627Z,100445.38
2022-10-24T16:57:33.035Z,100451.13
2022-10-24T16:59:59.464Z,100452.06
2022-10-24T17:02:25.871Z,100457.53
2022-10-24T17:04:52.287Z,100454.75
2022-10-24T17:07:18.683Z,100463.28
2022-10-24T17:09:45.061Z,100460.56
2022-10-24T17:12:11.439Z,100467.59
2022-10-24T17:14:37.808Z,100465.69
2022-10-24T17:17:05.808Z,100475.06
2022-10-24T17:19:32.303Z,100476.59
2022-10-24T17:21:58.749Z,100481.97
2022-10-24T17:24:25.348Z,100477.03
2022-10-24T17:26:52.315Z,100484.41
2022-10-24T17:29:32.336Z,100487.28
2022-10-24T17:31:58.924Z,100477.47
2022-10-24T17:34:25.725Z,100483.44
2022-10-24T17:37:15.743Z,100488.66
2022-10-24T17:39:56.508Z,100484.31
2022-10-24T17:42:23.146Z,100491.34
2022-10-24T17:44:49.807Z,100484.94
2022-10-24T17:47:16.348Z,100486.31
2022-10-24T17:49:43.061Z,100485.63
2022-10-24T17:52:15.715Z,100499.94
2022-10-24T17:54:45.715Z,100493.59
2022-10-24T17:57:12.314Z,100498.44
2022-10-24T17:59:38.710Z,100491.75
2022-10-24T18:02:05.240Z,100487.41
2022-10-24T18:07:03.395Z,100491.84
2022-10-24T18:09:29.802Z,100493.75
2022-10-24T18:11:56.292Z,100499.13
2022-10-24T18:14:22.705Z,100499.28
2022-10-24T18:16:49.172Z,100494.34
2022-10-24T18:19:15.569Z,100497.72
2022-10-24T18:21:42.033Z,100502.22
2022-10-24T18:24:09.483Z,100500.59
2022-10-24T18:26:35.871Z,100500.97
2022-10-24T18:29:02.555Z,100513.47
2022-10-24T18:31:29.760Z,100509.84
2022-10-24T18:34:03.543Z,100512.94
2022-10-24T18:36:33.997Z,100522.25
2022-10-24T18:39:00.401Z,100519.88
2022-10-24T18:41:36.973Z,100520.22
2022-10-24T18:44:21.896Z,100524.72
2022-10-24T18:46:49.024Z,100532.84
2022-10-24T18:49:15.644Z,100523.91
2022-10-24T18:51:50.684Z,100529.66
2022-10-24T18:56:51.777Z,100531.03
2022-10-24T18:59:19.796Z,100537.50
2022-10-24T19:01:58.367Z,100533.06
2022-10-24T19:04:25.108Z,100533.47
2022-10-24T19:06:53.679Z,100534.41
2022-10-24T19:09:24.103Z,100532.69
2022-10-24T19:11:50.866Z,100539.88
2022-10-24T19:14:17.501Z,100539.94
2022-10-24T19:16:44.877Z,100548.25
2022-10-24T19:19:11.684Z,100544.91
2022-10-24T19:21:38.443Z,100552.81
2022-10-24T19:24:05.304Z,100549.56
2022-10-24T19:26:40.268Z,100549.66
2022-10-24T19:29:06.743Z,100554.25
2022-10-24T19:31:33.196Z,100553.13
2022-10-24T19:34:00.695Z,100561.34
2022-10-24T19:38:58.715Z,100556.41
2022-10-24T19:41:25.088Z,100546.88
2022-10-24T19:43:51.487Z,100559.41
2022-10-24T19:46:20.075Z,100561.97
2022-10-24T19:48:47.247Z,100556.66
2022-10-24T19:51:13.661Z,100557.06
2022-10-24T19:53:41.284Z,100570.28
2022-10-24T19:56:27.869Z,100559.88
2022-10-24T19:58:56.109Z,100562.72
2022-10-24T20:01:24.397Z,100569.19
2022-10-24T20:03:51.306Z,100569.31
2022-10-24T20:06:18.561Z,100568.47
2022-10-24T20:08:48.635Z,100570.28
2022-10-24T20:11:15.180Z,100579.13
2022-10-24T20:13:42.432Z,100571.94
2022-10-24T20:16:08.824Z,100570.28
2022-10-24T20:18:35.513Z,100581.00
2022-10-24T20:21:02.789Z,100581.00
2022-10-24T20:23:29.294Z,100580.06
2022-10-24T20:26:03.249Z,100589.84
2022-10-24T20:28:29.659Z,100584.75
2022-10-24T20:30:58.130Z,100586.81
2022-10-24T20:33:24.575Z,100587.81
2022-10-24T20:35:50.957Z,100590.44
2022-10-24T20:38:17.346Z,100589.84
2022-10-24T20:40:44.935Z,100590.16
2022-10-24T20:43:12.531Z,100593.84
2022-10-24T20:45:39.906Z,100601.19
2022-10-24T20:48:06.321Z,100603.94
2022-10-24T20:50:32.772Z,100605.94
2022-10-24T20:52:59.186Z,100608.13
2022-10-24T20:55:39.220Z,100608.22
2022-10-24T20:58:14.003Z,100614.81
2022-10-24T21:03:08.064Z,100621.09
2022-10-24T21:05:34.973Z,100618.31
2022-10-24T21:08:01.347Z,100623.72
2022-10-24T21:10:27.787Z,100619.50
2022-10-24T21:12:54.624Z,100615.44
2022-10-24T21:15:21.089Z,100624.09
2022-10-24T21:17:47.702Z,100624.72
2022-10-24T21:20:14.358Z,100629.97
2022-10-24T21:22:40.741Z,100632.34
2022-10-24T21:25:07.331Z,100635.78
2022-10-24T21:27:33.714Z,100638.25
2022-10-24T21:30:00.104Z,100642.16
2022-10-24T21:32:26.488Z,100645.66
2022-10-24T21:34:52.881Z,100660.94
2022-10-24T21:37:19.261Z,100653.13
2022-10-24T21:39:45.712Z,100656.75
2022-10-24T21:42:12.126Z,100653.75
2022-10-24T21:44:38.541Z,100655.50
2022-10-24T21:47:04.945Z,100648.28
2022-10-24T21:49:31.324Z,100652.75
2022-10-24T21:51:57.730Z,100653.69
2022-10-24T21:54:24.339Z,100661.63
2022-10-24T21:56:50.738Z,100654.50
2022-10-24T21:59:18.982Z,100658.25
2022-10-24T22:01:46.160Z,100664.50
2022-10-24T22:04:12.945Z,100673.41
2022-10-24T22:06:39.486Z,100676.75
2022-10-24T22:09:07.102Z,100679.56
2022-10-24T22:11:34.560Z,100671.75
2022-10-24T22:14:01.072Z,100667.28
2022-10-24T22:16:28.973Z,100677.13
2022-10-24T22:18:55.508Z,100669.84
2022-10-24T22:21:29.255Z,100681.63
2022-10-24T22:23:56.709Z,100672.75
2022-10-24T22:26:23.699Z,100675.50
2022-10-24T22:28:50.066Z,100684.38
2022-10-24T22:31:16.671Z,100690.53
2022-10-24T22:33:43.205Z,100688.63
2022-10-24T22:36:49.473Z,100688.91
2022-10-24T22:39:20.935Z,100688.41
2022-10-24T22:41:47.634Z,100688.78
2022-10-24T22:44:15.427Z,100701.63
2022-10-24T22:47:10.527Z,100694.53
2022-10-24T22:50:15.554Z,100698.91
2022-10-24T22:52:42.122Z,100698.31
2022-10-24T22:55:33.915Z,100699.50
2022-10-24T22:58:00.606Z,100707.69
2022-10-24T23:00:27.156Z,100695.34
2022-10-24T23:02:57.612Z,100703.28
2022-10-24T23:05:29.199Z,100713.25
2022-10-24T23:08:04.181Z,100706.19
2022-10-24T23:10:30.585Z,100712.44
2022-10-24T23:12:57.278Z,100709.97
2022-10-24T23:15:24.016Z,100715.50
2022-10-24T23:17:50.811Z,100715.56
2022-10-24T23:20:31.766Z,100715.72
2022-10-24T23:23:09.258Z,100713.09
2022-10-24T23:25:43.962Z,100714.03
2022-10-24T23:28:24.509Z,100715.22
2022-10-24T23:30:51.095Z,100726.81
2022-10-24T23:33:24.303Z,100727.81
2022-10-24T23:35:51.133Z,100722.59
2022-10-24T23:38:17.742Z,100725.44
2022-10-24T23:40:44.253Z,100719.44
2022-10-24T23:43:14.196Z,100719.38
2022-10-24T23:45:48.407Z,100723.03
2022-10-24T23:48:42.462Z,100717.91
2022-10-24T23:51:11.775Z,100718.06
2022-10-24T23:53:48.184Z,100722.59
2022-10-24T23:56:14.921Z,100720.00
2022-10-24T23:58:41.364Z,100726.34
